sensor_id;sensor_type;location;lat;lon;timestamp;P1;durP1;ratioP1;P2;durP2;ratioP2
21293;SDS011;10806;52.250;21.066;2022-08-01T00:00:04;7.00;;;2.97;;
21293;SDS011;10806;52.250;21.066;2022-08-01T00:02:31;13.77;;;4.00;;
21293;SDS011;10806;52.250;21.066;2022-08-01T00:04:57;9.45;;;3.45;;
21293;SDS011;10806;52.250;21.066;2022-08-01T00:07:23;8.55;;;3.60;;
21293;SDS011;10806;52.250;21.066;2022-08-01T00:09:48;7.97;;;3.42;;
21293;SDS011;10806;52.250;21.066;2022-08-01T00:12:14;7.43;;;2.90;;
21293;SDS011;10806;52.250;21.066;2022-08-01T00:14:39;7.03;;;2.95;;
21293;SDS011;10806;52.250;21.066;2022-08-01T00:17:05;9.52;;;3.17;;
21293;SDS011;10806;52.250;21.066;2022-08-01T00:19:31;11.38;;;3.33;;
21293;SDS011;10806;52.250;21.066;2022-08-01T00:21:56;6.97;;;3.30;;
21293;SDS011;10806;52.250;21.066;2022-08-01T00:24:22;10.10;;;3.50;;
21293;SDS011;10806;52.250;21.066;2022-08-01T00:26:48;7.00;;;3.17;;
21293;SDS011;10806;52.250;21.066;2022-08-01T00:29:14;7.47;;;2.97;;
21293;SDS011;10806;52.250;21.066;2022-08-01T00:31:39;4.85;;;3.03;;
21293;SDS011;10806;52.250;21.066;2022-08-01T00:34:05;5.95;;;3.35;;
21293;SDS011;10806;52.250;21.066;2022-08-01T00:36:30;7.05;;;3.03;;
21293;SDS011;10806;52.250;21.066;2022-08-01T00:38:56;9.65;;;3.15;;
21293;SDS011;10806;52.250;21.066;2022-08-01T00:41:22;7.13;;;3.38;;
21293;SDS011;10806;52.250;21.066;2022-08-01T00:43:47;5.93;;;3.03;;
21293;SDS011;10806;52.250;21.066;2022-08-01T00:46:13;9.35;;;3.35;;
21293;SDS011;10806;52.250;21.066;2022-08-01T00:48:38;7.90;;;3.35;;
21293;SDS011;10806;52.250;21.066;2022-08-01T00:51:04;8.35;;;3.22;;
21293;SDS011;10806;52.250;21.066;2022-08-01T00:53:30;7.72;;;3.22;;
21293;SDS011;10806;52.250;21.066;2022-08-01T00:55:56;8.15;;;3.45;;
21293;SDS011;10806;52.250;21.066;2022-08-01T00:58:22;8.10;;;3.15;;
21293;SDS011;10806;52.250;21.066;2022-08-01T01:00:48;4.28;;;3.30;;
21293;SDS011;10806;52.250;21.066;2022-08-01T01:03:14;7.07;;;3.10;;
21293;SDS011;10806;52.250;21.066;2022-08-01T01:05:43;4.20;;;2.90;;
21293;SDS011;10806;52.250;21.066;2022-08-01T01:08:17;10.00;;;3.40;;
21293;SDS011;10806;52.250;21.066;2022-08-01T01:13:23;7.38;;;3.45;;
21293;SDS011;10806;52.250;21.066;2022-08-01T01:16:01;5.88;;;3.08;;
21293;SDS011;10806;52.250;21.066;2022-08-01T01:18:48;8.10;;;3.20;;
21293;SDS011;10806;52.250;21.066;2022-08-01T01:29:21;7.57;;;3.08;;
21293;SDS011;10806;52.250;21.066;2022-08-01T01:32:10;5.22;;;3.15;;
21293;SDS011;10806;52.250;21.066;2022-08-01T01:34:42;5.18;;;2.97;;
21293;SDS011;10806;52.250;21.066;2022-08-01T01:37:12;4.72;;;3.05;;
21293;SDS011;10806;52.250;21.066;2022-08-01T01:39:42;5.80;;;3.30;;
21293;SDS011;10806;52.250;21.066;2022-08-01T01:42:09;5.03;;;3.20;;
21293;SDS011;10806;52.250;21.066;2022-08-01T01:44:35;5.65;;;3.13;;
21293;SDS011;10806;52.250;21.066;2022-08-01T01:47:02;4.38;;;2.90;;
21293;SDS011;10806;52.250;21.066;2022-08-01T01:49:30;6.75;;;3.00;;
21293;SDS011;10806;52.250;21.066;2022-08-01T01:51:57;5.60;;;2.72;;
21293;SDS011;10806;52.250;21.066;2022-08-01T01:54:28;10.02;;;3.20;;
21293;SDS011;10806;52.250;21.066;2022-08-01T01:56:57;6.40;;;3.20;;
21293;SDS011;10806;52.250;21.066;2022-08-01T01:59:25;7.40;;;3.22;;
21293;SDS011;10806;52.250;21.066;2022-08-01T02:01:55;5.85;;;2.80;;
21293;SDS011;10806;52.250;21.066;2022-08-01T02:04:23;4.88;;;3.22;;
21293;SDS011;10806;52.250;21.066;2022-08-01T02:06:50;3.95;;;3.08;;
21293;SDS011;10806;52.250;21.066;2022-08-01T02:09:18;5.72;;;3.13;;
21293;SDS011;10806;52.250;21.066;2022-08-01T02:11:46;3.63;;;2.65;;
21293;SDS011;10806;52.250;21.066;2022-08-01T02:14:13;5.72;;;2.90;;
21293;SDS011;10806;52.250;21.066;2022-08-01T02:16:41;9.52;;;3.55;;
21293;SDS011;10806;52.250;21.066;2022-08-01T02:19:09;8.45;;;3.25;;
21293;SDS011;10806;52.250;21.066;2022-08-01T02:21:49;5.35;;;3.25;;
21293;SDS011;10806;52.250;21.066;2022-08-01T02:24:31;4.13;;;2.88;;
21293;SDS011;10806;52.250;21.066;2022-08-01T02:26:59;7.10;;;3.10;;
21293;SDS011;10806;52.250;21.066;2022-08-01T02:29:30;5.38;;;3.10;;
21293;SDS011;10806;52.250;21.066;2022-08-01T02:32:03;6.20;;;2.90;;
21293;SDS011;10806;52.250;21.066;2022-08-01T02:34:31;5.05;;;3.25;;
21293;SDS011;10806;52.250;21.066;2022-08-01T02:36:58;4.65;;;3.15;;
21293;SDS011;10806;52.250;21.066;2022-08-01T02:39:26;4.72;;;2.92;;
21293;SDS011;10806;52.250;21.066;2022-08-01T02:41:55;5.85;;;3.22;;
21293;SDS011;10806;52.250;21.066;2022-08-01T02:44:30;6.28;;;3.20;;
21293;SDS011;10806;52.250;21.066;2022-08-01T02:47:00;4.35;;;3.15;;
21293;SDS011;10806;52.250;21.066;2022-08-01T02:49:31;6.57;;;3.20;;
21293;SDS011;10806;52.250;21.066;2022-08-01T02:51:59;6.60;;;3.30;;
21293;SDS011;10806;52.250;21.066;2022-08-01T02:54:28;5.43;;;3.30;;
21293;SDS011;10806;52.250;21.066;2022-08-01T02:56:55;3.33;;;2.80;;
21293;SDS011;10806;52.250;21.066;2022-08-01T02:59:22;3.58;;;2.95;;
21293;SDS011;10806;52.250;21.066;2022-08-01T03:01:51;5.38;;;2.97;;
21293;SDS011;10806;52.250;21.066;2022-08-01T03:04:18;4.68;;;2.92;;
21293;SDS011;10806;52.250;21.066;2022-08-01T03:06:46;3.33;;;2.67;;
21293;SDS011;10806;52.250;21.066;2022-08-01T03:09:13;3.90;;;2.78;;
21293;SDS011;10806;52.250;21.066;2022-08-01T03:11:39;4.03;;;2.97;;
21293;SDS011;10806;52.250;21.066;2022-08-01T03:14:07;4.72;;;2.92;;
21293;SDS011;10806;52.250;21.066;2022-08-01T03:16:35;8.27;;;3.25;;
21293;SDS011;10806;52.250;21.066;2022-08-01T03:19:03;4.18;;;2.88;;
21293;SDS011;10806;52.250;21.066;2022-08-01T03:21:32;5.05;;;2.95;;
21293;SDS011;10806;52.250;21.066;2022-08-01T03:23:59;4.32;;;2.97;;
21293;SDS011;10806;52.250;21.066;2022-08-01T03:26:29;4.93;;;3.25;;
21293;SDS011;10806;52.250;21.066;2022-08-01T03:28:57;3.60;;;2.88;;
21293;SDS011;10806;52.250;21.066;2022-08-01T03:31:26;5.70;;;3.15;;
21293;SDS011;10806;52.250;21.066;2022-08-01T03:33:53;4.22;;;2.97;;
21293;SDS011;10806;52.250;21.066;2022-08-01T03:36:20;6.28;;;3.08;;
21293;SDS011;10806;52.250;21.066;2022-08-01T03:38:49;6.20;;;2.97;;
21293;SDS011;10806;52.250;21.066;2022-08-01T03:41:18;3.50;;;3.13;;
21293;SDS011;10806;52.250;21.066;2022-08-01T03:43:55;7.32;;;2.90;;
21293;SDS011;10806;52.250;21.066;2022-08-01T03:46:28;5.88;;;3.15;;
21293;SDS011;10806;52.250;21.066;2022-08-01T03:49:00;6.03;;;3.10;;
21293;SDS011;10806;52.250;21.066;2022-08-01T03:51:28;4.10;;;2.88;;
21293;SDS011;10806;52.250;21.066;2022-08-01T03:53:55;4.50;;;2.80;;
21293;SDS011;10806;52.250;21.066;2022-08-01T03:56:24;4.22;;;3.08;;
21293;SDS011;10806;52.250;21.066;2022-08-01T03:58:51;5.30;;;3.05;;
21293;SDS011;10806;52.250;21.066;2022-08-01T04:01:17;5.65;;;2.90;;
21293;SDS011;10806;52.250;21.066;2022-08-01T04:03:43;8.38;;;3.30;;
21293;SDS011;10806;52.250;21.066;2022-08-01T04:06:10;4.15;;;2.70;;
21293;SDS011;10806;52.250;21.066;2022-08-01T04:08:36;6.18;;;3.28;;
21293;SDS011;10806;52.250;21.066;2022-08-01T04:11:02;6.13;;;3.05;;
21293;SDS011;10806;52.250;21.066;2022-08-01T04:13:28;4.47;;;2.97;;
21293;SDS011;10806;52.250;21.066;2022-08-01T04:15:54;6.43;;;3.30;;
21293;SDS011;10806;52.250;21.066;2022-08-01T04:18:20;4.75;;;2.75;;
21293;SDS011;10806;52.250;21.066;2022-08-01T04:20:46;5.72;;;2.95;;
21293;SDS011;10806;52.250;21.066;2022-08-01T04:23:11;4.57;;;3.10;;
21293;SDS011;10806;52.250;21.066;2022-08-01T04:25:40;4.30;;;2.80;;
21293;SDS011;10806;52.250;21.066;2022-08-01T04:28:07;4.55;;;3.08;;
21293;SDS011;10806;52.250;21.066;2022-08-01T04:30:41;4.38;;;2.83;;
21293;SDS011;10806;52.250;21.066;2022-08-01T04:33:09;5.72;;;3.13;;
21293;SDS011;10806;52.250;21.066;2022-08-01T04:35:38;5.07;;;2.90;;
21293;SDS011;10806;52.250;21.066;2022-08-01T04:38:06;6.35;;;3.28;;
21293;SDS011;10806;52.250;21.066;2022-08-01T04:40:34;4.70;;;2.78;;
21293;SDS011;10806;52.250;21.066;2022-08-01T04:43:01;3.83;;;2.83;;
21293;SDS011;10806;52.250;21.066;2022-08-01T04:45:27;7.63;;;3.33;;
21293;SDS011;10806;52.250;21.066;2022-08-01T04:47:53;4.45;;;3.13;;
21293;SDS011;10806;52.250;21.066;2022-08-01T04:50:21;3.85;;;2.72;;
21293;SDS011;10806;52.250;21.066;2022-08-01T04:52:48;4.03;;;2.78;;
21293;SDS011;10806;52.250;21.066;2022-08-01T04:55:13;4.18;;;3.03;;
21293;SDS011;10806;52.250;21.066;2022-08-01T04:57:40;3.35;;;2.80;;
21293;SDS011;10806;52.250;21.066;2022-08-01T05:00:07;5.93;;;3.33;;
21293;SDS011;10806;52.250;21.066;2022-08-01T05:02:33;8.02;;;3.20;;
21293;SDS011;10806;52.250;21.066;2022-08-01T05:04:59;6.20;;;3.20;;
21293;SDS011;10806;52.250;21.066;2022-08-01T05:07:25;5.88;;;3.35;;
21293;SDS011;10806;52.250;21.066;2022-08-01T05:09:50;4.32;;;3.28;;
21293;SDS011;10806;52.250;21.066;2022-08-01T05:12:16;8.10;;;3.10;;
21293;SDS011;10806;52.250;21.066;2022-08-01T05:14:42;4.65;;;2.95;;
21293;SDS011;10806;52.250;21.066;2022-08-01T05:17:08;3.63;;;3.03;;
21293;SDS011;10806;52.250;21.066;2022-08-01T05:19:34;9.73;;;3.45;;
21293;SDS011;10806;52.250;21.066;2022-08-01T05:22:02;10.75;;;3.55;;
21293;SDS011;10806;52.250;21.066;2022-08-01T05:24:38;4.65;;;3.30;;
21293;SDS011;10806;52.250;21.066;2022-08-01T05:27:05;6.28;;;3.65;;
21293;SDS011;10806;52.250;21.066;2022-08-01T05:29:32;4.25;;;3.03;;
21293;SDS011;10806;52.250;21.066;2022-08-01T05:31:58;4.30;;;3.03;;
21293;SDS011;10806;52.250;21.066;2022-08-01T05:34:24;5.00;;;3.20;;
21293;SDS011;10806;52.250;21.066;2022-08-01T05:36:50;5.28;;;3.28;;
21293;SDS011;10806;52.250;21.066;2022-08-01T05:39:16;7.22;;;3.28;;
21293;SDS011;10806;52.250;21.066;2022-08-01T05:41:41;5.45;;;3.22;;
21293;SDS011;10806;52.250;21.066;2022-08-01T05:44:07;5.97;;;3.60;;
21293;SDS011;10806;52.250;21.066;2022-08-01T05:46:33;5.05;;;3.80;;
21293;SDS011;10806;52.250;21.066;2022-08-01T05:49:00;5.13;;;3.05;;
21293;SDS011;10806;52.250;21.066;2022-08-01T05:51:27;8.20;;;3.63;;
21293;SDS011;10806;52.250;21.066;2022-08-01T05:53:53;7.38;;;3.67;;
21293;SDS011;10806;52.250;21.066;2022-08-01T05:56:19;5.90;;;3.70;;
21293;SDS011;10806;52.250;21.066;2022-08-01T05:58:45;7.03;;;3.80;;
21293;SDS011;10806;52.250;21.066;2022-08-01T06:01:11;6.97;;;3.60;;
21293;SDS011;10806;52.250;21.066;2022-08-01T06:03:37;7.28;;;3.88;;
21293;SDS011;10806;52.250;21.066;2022-08-01T06:06:02;5.28;;;3.53;;
21293;SDS011;10806;52.250;21.066;2022-08-01T06:08:29;7.18;;;3.53;;
21293;SDS011;10806;52.250;21.066;2022-08-01T06:10:54;5.97;;;3.92;;
21293;SDS011;10806;52.250;21.066;2022-08-01T06:13:20;7.18;;;3.47;;
21293;SDS011;10806;52.250;21.066;2022-08-01T06:15:46;5.03;;;3.42;;
21293;SDS011;10806;52.250;21.066;2022-08-01T06:18:12;6.13;;;3.58;;
21293;SDS011;10806;52.250;21.066;2022-08-01T06:20:38;6.05;;;4.07;;
21293;SDS011;10806;52.250;21.066;2022-08-01T06:23:04;4.38;;;3.47;;
21293;SDS011;10806;52.250;21.066;2022-08-01T06:25:29;5.85;;;3.42;;
21293;SDS011;10806;52.250;21.066;2022-08-01T06:27:55;5.60;;;3.50;;
21293;SDS011;10806;52.250;21.066;2022-08-01T06:30:21;10.65;;;3.70;;
21293;SDS011;10806;52.250;21.066;2022-08-01T06:32:47;5.10;;;3.60;;
21293;SDS011;10806;52.250;21.066;2022-08-01T06:35:13;4.80;;;3.20;;
21293;SDS011;10806;52.250;21.066;2022-08-01T06:37:39;7.10;;;4.28;;
21293;SDS011;10806;52.250;21.066;2022-08-01T06:40:06;4.50;;;3.50;;
21293;SDS011;10806;52.250;21.066;2022-08-01T06:42:36;5.45;;;3.80;;
21293;SDS011;10806;52.250;21.066;2022-08-01T06:45:05;7.07;;;3.80;;
21293;SDS011;10806;52.250;21.066;2022-08-01T06:47:32;5.55;;;3.85;;
21293;SDS011;10806;52.250;21.066;2022-08-01T06:49:57;7.50;;;3.85;;
21293;SDS011;10806;52.250;21.066;2022-08-01T06:52:23;9.20;;;3.70;;
21293;SDS011;10806;52.250;21.066;2022-08-01T06:54:50;4.97;;;3.40;;
21293;SDS011;10806;52.250;21.066;2022-08-01T06:57:16;7.55;;;3.65;;
21293;SDS011;10806;52.250;21.066;2022-08-01T06:59:42;11.45;;;3.72;;
21293;SDS011;10806;52.250;21.066;2022-08-01T07:02:08;6.03;;;3.88;;
21293;SDS011;10806;52.250;21.066;2022-08-01T07:04:34;8.00;;;3.42;;
21293;SDS011;10806;52.250;21.066;2022-08-01T07:06:59;7.38;;;3.63;;
21293;SDS011;10806;52.250;21.066;2022-08-01T07:09:25;4.38;;;3.65;;
21293;SDS011;10806;52.250;21.066;2022-08-01T07:11:51;5.60;;;3.45;;
21293;SDS011;10806;52.250;21.066;2022-08-01T07:14:18;7.10;;;4.05;;
21293;SDS011;10806;52.250;21.066;2022-08-01T07:16:44;6.05;;;3.22;;
21293;SDS011;10806;52.250;21.066;2022-08-01T07:19:10;7.95;;;3.97;;
21293;SDS011;10806;52.250;21.066;2022-08-01T07:21:36;6.60;;;4.10;;
21293;SDS011;10806;52.250;21.066;2022-08-01T07:24:03;5.25;;;3.55;;
21293;SDS011;10806;52.250;21.066;2022-08-01T07:26:29;13.07;;;4.15;;
21293;SDS011;10806;52.250;21.066;2022-08-01T07:28:55;5.55;;;3.58;;
21293;SDS011;10806;52.250;21.066;2022-08-01T07:31:20;5.28;;;3.67;;
21293;SDS011;10806;52.250;21.066;2022-08-01T07:33:46;7.57;;;3.38;;
21293;SDS011;10806;52.250;21.066;2022-08-01T07:36:11;7.13;;;3.70;;
21293;SDS011;10806;52.250;21.066;2022-08-01T07:38:37;6.82;;;3.55;;
21293;SDS011;10806;52.250;21.066;2022-08-01T07:41:02;6.97;;;3.65;;
21293;SDS011;10806;52.250;21.066;2022-08-01T07:43:28;5.82;;;3.50;;
21293;SDS011;10806;52.250;21.066;2022-08-01T07:45:54;10.25;;;3.67;;
21293;SDS011;10806;52.250;21.066;2022-08-01T07:48:20;5.97;;;3.38;;
21293;SDS011;10806;52.250;21.066;2022-08-01T07:50:49;5.97;;;3.50;;
21293;SDS011;10806;52.250;21.066;2022-08-01T07:53:15;7.53;;;3.63;;
21293;SDS011;10806;52.250;21.066;2022-08-01T07:55:41;5.38;;;3.80;;
21293;SDS011;10806;52.250;21.066;2022-08-01T07:58:07;4.97;;;3.17;;
21293;SDS011;10806;52.250;21.066;2022-08-01T08:00:33;6.82;;;3.60;;
21293;SDS011;10806;52.250;21.066;2022-08-01T08:02:58;5.32;;;3.10;;
21293;SDS011;10806;52.250;21.066;2022-08-01T08:05:25;9.35;;;3.30;;
21293;SDS011;10806;52.250;21.066;2022-08-01T08:07:51;11.10;;;3.60;;
21293;SDS011;10806;52.250;21.066;2022-08-01T08:10:16;7.35;;;3.40;;
21293;SDS011;10806;52.250;21.066;2022-08-01T08:12:42;5.20;;;3.03;;
21293;SDS011;10806;52.250;21.066;2022-08-01T08:15:08;11.75;;;3.83;;
21293;SDS011;10806;52.250;21.066;2022-08-01T08:17:34;11.82;;;3.65;;
21293;SDS011;10806;52.250;21.066;2022-08-01T08:20:00;8.75;;;3.15;;
21293;SDS011;10806;52.250;21.066;2022-08-01T08:22:27;7.82;;;3.58;;
21293;SDS011;10806;52.250;21.066;2022-08-01T08:24:53;7.97;;;3.00;;
21293;SDS011;10806;52.250;21.066;2022-08-01T08:27:18;7.30;;;3.10;;
21293;SDS011;10806;52.250;21.066;2022-08-01T08:29:44;5.22;;;3.20;;
21293;SDS011;10806;52.250;21.066;2022-08-01T08:32:09;5.95;;;3.38;;
21293;SDS011;10806;52.250;21.066;2022-08-01T08:34:35;4.93;;;3.10;;
21293;SDS011;10806;52.250;21.066;2022-08-01T08:37:01;6.20;;;3.30;;
21293;SDS011;10806;52.250;21.066;2022-08-01T08:39:27;8.75;;;3.47;;
21293;SDS011;10806;52.250;21.066;2022-08-01T08:41:54;5.00;;;3.17;;
21293;SDS011;10806;52.250;21.066;2022-08-01T08:44:22;4.35;;;3.25;;
21293;SDS011;10806;52.250;21.066;2022-08-01T08:46:49;4.90;;;3.40;;
21293;SDS011;10806;52.250;21.066;2022-08-01T08:49:17;10.23;;;3.72;;
21293;SDS011;10806;52.250;21.066;2022-08-01T08:51:47;5.15;;;3.35;;
21293;SDS011;10806;52.250;21.066;2022-08-01T08:54:13;7.85;;;3.40;;
21293;SDS011;10806;52.250;21.066;2022-08-01T08:56:40;5.70;;;3.42;;
21293;SDS011;10806;52.250;21.066;2022-08-01T08:59:08;11.70;;;3.15;;
21293;SDS011;10806;52.250;21.066;2022-08-01T09:01:36;14.45;;;3.70;;
21293;SDS011;10806;52.250;21.066;2022-08-01T09:04:02;12.02;;;3.15;;
21293;SDS011;10806;52.250;21.066;2022-08-01T09:06:28;8.07;;;3.05;;
21293;SDS011;10806;52.250;21.066;2022-08-01T09:08:55;8.25;;;3.50;;
21293;SDS011;10806;52.250;21.066;2022-08-01T09:11:21;14.70;;;3.10;;
21293;SDS011;10806;52.250;21.066;2022-08-01T09:16:36;9.73;;;2.95;;
21293;SDS011;10806;52.250;21.066;2022-08-01T09:19:08;18.63;;;3.38;;
21293;SDS011;10806;52.250;21.066;2022-08-01T09:21:38;11.68;;;3.13;;
21293;SDS011;10806;52.250;21.066;2022-08-01T09:24:04;16.70;;;3.60;;
21293;SDS011;10806;52.250;21.066;2022-08-01T09:26:38;12.48;;;3.45;;
21293;SDS011;10806;52.250;21.066;2022-08-01T09:29:05;13.60;;;3.20;;
21293;SDS011;10806;52.250;21.066;2022-08-01T09:31:42;11.38;;;3.13;;
21293;SDS011;10806;52.250;21.066;2022-08-01T09:34:09;15.55;;;3.55;;
21293;SDS011;10806;52.250;21.066;2022-08-01T09:36:48;12.63;;;3.50;;
21293;SDS011;10806;52.250;21.066;2022-08-01T09:39:21;13.93;;;3.70;;
21293;SDS011;10806;52.250;21.066;2022-08-01T09:41:52;13.10;;;3.60;;
21293;SDS011;10806;52.250;21.066;2022-08-01T09:44:19;9.10;;;4.03;;
21293;SDS011;10806;52.250;21.066;2022-08-01T09:46:54;9.68;;;3.10;;
21293;SDS011;10806;52.250;21.066;2022-08-01T09:49:33;14.63;;;3.60;;
21293;SDS011;10806;52.250;21.066;2022-08-01T09:52:11;9.25;;;3.65;;
21293;SDS011;10806;52.250;21.066;2022-08-01T09:54:41;9.90;;;3.60;;
21293;SDS011;10806;52.250;21.066;2022-08-01T09:57:15;17.73;;;3.92;;
21293;SDS011;10806;52.250;21.066;2022-08-01T09:59:43;8.80;;;3.35;;
21293;SDS011;10806;52.250;21.066;2022-08-01T10:02:14;15.95;;;3.92;;
21293;SDS011;10806;52.250;21.066;2022-08-01T10:04:52;17.60;;;3.45;;
21293;SDS011;10806;52.250;21.066;2022-08-01T10:07:19;19.92;;;3.58;;
21293;SDS011;10806;52.250;21.066;2022-08-01T10:09:46;11.63;;;3.67;;
21293;SDS011;10806;52.250;21.066;2022-08-01T10:12:13;16.67;;;3.45;;
21293;SDS011;10806;52.250;21.066;2022-08-01T10:14:42;18.85;;;3.78;;
21293;SDS011;10806;52.250;21.066;2022-08-01T10:17:09;18.20;;;3.83;;
21293;SDS011;10806;52.250;21.066;2022-08-01T10:19:38;31.88;;;4.28;;
21293;SDS011;10806;52.250;21.066;2022-08-01T10:22:07;18.10;;;4.13;;
21293;SDS011;10806;52.250;21.066;2022-08-01T10:24:35;15.45;;;3.70;;
21293;SDS011;10806;52.250;21.066;2022-08-01T10:27:05;24.63;;;4.03;;
21293;SDS011;10806;52.250;21.066;2022-08-01T10:29:46;20.33;;;4.10;;
21293;SDS011;10806;52.250;21.066;2022-08-01T10:32:21;19.90;;;4.00;;
21293;SDS011;10806;52.250;21.066;2022-08-01T10:34:48;17.02;;;3.85;;
21293;SDS011;10806;52.250;21.066;2022-08-01T10:37:14;17.00;;;3.88;;
21293;SDS011;10806;52.250;21.066;2022-08-01T10:39:42;23.95;;;3.67;;
21293;SDS011;10806;52.250;21.066;2022-08-01T10:42:09;11.32;;;3.13;;
21293;SDS011;10806;52.250;21.066;2022-08-01T10:44:35;8.75;;;3.40;;
21293;SDS011;10806;52.250;21.066;2022-08-01T10:47:12;21.25;;;3.83;;
21293;SDS011;10806;52.250;21.066;2022-08-01T10:49:43;23.23;;;3.70;;
21293;SDS011;10806;52.250;21.066;2022-08-01T10:52:19;12.02;;;3.05;;
21293;SDS011;10806;52.250;21.066;2022-08-01T10:54:45;9.40;;;3.08;;
21293;SDS011;10806;52.250;21.066;2022-08-01T10:57:11;11.07;;;2.88;;
21293;SDS011;10806;52.250;21.066;2022-08-01T10:59:48;9.80;;;2.60;;
21293;SDS011;10806;52.250;21.066;2022-08-01T11:02:33;8.75;;;2.80;;
21293;SDS011;10806;52.250;21.066;2022-08-01T11:05:09;13.63;;;3.28;;
21293;SDS011;10806;52.250;21.066;2022-08-01T11:07:43;19.90;;;3.33;;
21293;SDS011;10806;52.250;21.066;2022-08-01T11:10:24;8.45;;;2.95;;
21293;SDS011;10806;52.250;21.066;2022-08-01T11:12:53;8.43;;;3.13;;
21293;SDS011;10806;52.250;21.066;2022-08-01T11:15:20;13.02;;;3.30;;
21293;SDS011;10806;52.250;21.066;2022-08-01T11:17:50;12.82;;;3.80;;
21293;SDS011;10806;52.250;21.066;2022-08-01T11:20:23;13.88;;;3.15;;
21293;SDS011;10806;52.250;21.066;2022-08-01T11:25:25;17.73;;;3.28;;
21293;SDS011;10806;52.250;21.066;2022-08-01T11:30:45;11.02;;;3.33;;
21293;SDS011;10806;52.250;21.066;2022-08-01T11:38:35;20.20;;;3.80;;
21293;SDS011;10806;52.250;21.066;2022-08-01T11:41:14;15.73;;;3.40;;
21293;SDS011;10806;52.250;21.066;2022-08-01T11:46:49;10.02;;;3.20;;
21293;SDS011;10806;52.250;21.066;2022-08-01T11:52:27;10.93;;;3.20;;
21293;SDS011;10806;52.250;21.066;2022-08-01T11:57:29;5.90;;;2.70;;
21293;SDS011;10806;52.250;21.066;2022-08-01T11:59:59;8.07;;;3.17;;
21293;SDS011;10806;52.250;21.066;2022-08-01T12:02:29;7.68;;;2.97;;
21293;SDS011;10806;52.250;21.066;2022-08-01T12:07:27;4.57;;;2.65;;
21293;SDS011;10806;52.250;21.066;2022-08-01T12:10:02;5.70;;;2.60;;
21293;SDS011;10806;52.250;21.066;2022-08-01T12:12:30;14.43;;;3.22;;
21293;SDS011;10806;52.250;21.066;2022-08-01T12:14:57;16.48;;;3.00;;
21293;SDS011;10806;52.250;21.066;2022-08-01T12:17:35;8.15;;;2.70;;
21293;SDS011;10806;52.250;21.066;2022-08-01T12:20:07;9.43;;;2.95;;
21293;SDS011;10806;52.250;21.066;2022-08-01T12:22:34;4.82;;;2.90;;
21293;SDS011;10806;52.250;21.066;2022-08-01T12:25:16;12.13;;;3.20;;
21293;SDS011;10806;52.250;21.066;2022-08-01T12:27:43;25.80;;;3.67;;
21293;SDS011;10806;52.250;21.066;2022-08-01T12:30:11;7.63;;;2.78;;
21293;SDS011;10806;52.250;21.066;2022-08-01T12:32:45;10.40;;;3.40;;
21293;SDS011;10806;52.250;21.066;2022-08-01T12:35:13;13.55;;;3.20;;
21293;SDS011;10806;52.250;21.066;2022-08-01T12:37:47;12.05;;;3.08;;
21293;SDS011;10806;52.250;21.066;2022-08-01T12:40:21;9.55;;;2.78;;
21293;SDS011;10806;52.250;21.066;2022-08-01T12:42:49;8.43;;;2.78;;
21293;SDS011;10806;52.250;21.066;2022-08-01T12:45:17;9.98;;;3.17;;
21293;SDS011;10806;52.250;21.066;2022-08-01T12:47:45;13.00;;;3.80;;
21293;SDS011;10806;52.250;21.066;2022-08-01T12:50:15;14.80;;;3.00;;
21293;SDS011;10806;52.250;21.066;2022-08-01T12:52:44;9.15;;;2.90;;
21293;SDS011;10806;52.250;21.066;2022-08-01T12:55:13;12.50;;;3.83;;
21293;SDS011;10806;52.250;21.066;2022-08-01T12:57:42;10.02;;;3.17;;
21293;SDS011;10806;52.250;21.066;2022-08-01T13:02:35;14.15;;;3.42;;
21293;SDS011;10806;52.250;21.066;2022-08-01T13:05:01;12.40;;;3.00;;
21293;SDS011;10806;52.250;21.066;2022-08-01T13:07:35;7.93;;;3.25;;
21293;SDS011;10806;52.250;21.066;2022-08-01T13:10:02;10.15;;;3.13;;
21293;SDS011;10806;52.250;21.066;2022-08-01T13:12:29;12.77;;;3.47;;
21293;SDS011;10806;52.250;21.066;2022-08-01T13:14:55;11.50;;;3.03;;
21293;SDS011;10806;52.250;21.066;2022-08-01T13:17:33;5.65;;;2.72;;
21293;SDS011;10806;52.250;21.066;2022-08-01T13:20:04;8.20;;;3.00;;
21293;SDS011;10806;52.250;21.066;2022-08-01T13:22:34;7.32;;;3.30;;
21293;SDS011;10806;52.250;21.066;2022-08-01T13:25:10;7.90;;;3.22;;
21293;SDS011;10806;52.250;21.066;2022-08-01T13:27:36;7.05;;;3.63;;
21293;SDS011;10806;52.250;21.066;2022-08-01T13:32:44;7.80;;;2.80;;
21293;SDS011;10806;52.250;21.066;2022-08-01T13:35:23;6.93;;;2.92;;
21293;SDS011;10806;52.250;21.066;2022-08-01T13:37:48;8.23;;;3.17;;
21293;SDS011;10806;52.250;21.066;2022-08-01T13:40:22;16.30;;;3.20;;
21293;SDS011;10806;52.250;21.066;2022-08-01T13:42:48;12.27;;;3.10;;
21293;SDS011;10806;52.250;21.066;2022-08-01T13:45:24;8.80;;;3.00;;
21293;SDS011;10806;52.250;21.066;2022-08-01T13:47:49;9.65;;;2.67;;
21293;SDS011;10806;52.250;21.066;2022-08-01T13:50:15;8.43;;;3.13;;
21293;SDS011;10806;52.250;21.066;2022-08-01T13:52:40;11.13;;;3.17;;
21293;SDS011;10806;52.250;21.066;2022-08-01T13:55:06;5.40;;;3.00;;
21293;SDS011;10806;52.250;21.066;2022-08-01T13:57:32;6.63;;;3.05;;
21293;SDS011;10806;52.250;21.066;2022-08-01T13:59:57;8.13;;;3.33;;
21293;SDS011;10806;52.250;21.066;2022-08-01T14:02:26;7.53;;;2.72;;
21293;SDS011;10806;52.250;21.066;2022-08-01T14:04:53;8.77;;;2.83;;
21293;SDS011;10806;52.250;21.066;2022-08-01T14:07:20;6.22;;;2.92;;
21293;SDS011;10806;52.250;21.066;2022-08-01T14:09:46;9.90;;;2.85;;
21293;SDS011;10806;52.250;21.066;2022-08-01T14:12:11;10.05;;;2.67;;
21293;SDS011;10806;52.250;21.066;2022-08-01T14:14:37;6.35;;;3.08;;
21293;SDS011;10806;52.250;21.066;2022-08-01T14:17:03;13.20;;;3.47;;
21293;SDS011;10806;52.250;21.066;2022-08-01T14:19:29;13.68;;;3.08;;
21293;SDS011;10806;52.250;21.066;2022-08-01T14:21:55;16.45;;;3.13;;
21293;SDS011;10806;52.250;21.066;2022-08-01T14:24:21;13.73;;;3.40;;
21293;SDS011;10806;52.250;21.066;2022-08-01T14:26:48;9.40;;;2.75;;
21293;SDS011;10806;52.250;21.066;2022-08-01T14:29:14;7.53;;;3.15;;
21293;SDS011;10806;52.250;21.066;2022-08-01T14:31:40;14.70;;;2.92;;
21293;SDS011;10806;52.250;21.066;2022-08-01T14:34:05;8.48;;;3.30;;
21293;SDS011;10806;52.250;21.066;2022-08-01T14:36:31;11.60;;;3.63;;
21293;SDS011;10806;52.250;21.066;2022-08-01T14:38:57;7.05;;;3.50;;
21293;SDS011;10806;52.250;21.066;2022-08-01T14:41:23;9.32;;;3.80;;
21293;SDS011;10806;52.250;21.066;2022-08-01T14:43:49;9.48;;;3.30;;
21293;SDS011;10806;52.250;21.066;2022-08-01T14:46:14;12.30;;;3.17;;
21293;SDS011;10806;52.250;21.066;2022-08-01T14:48:40;9.45;;;3.55;;
21293;SDS011;10806;52.250;21.066;2022-08-01T14:51:06;9.65;;;3.55;;
21293;SDS011;10806;52.250;21.066;2022-08-01T14:53:32;13.15;;;3.38;;
21293;SDS011;10806;52.250;21.066;2022-08-01T14:55:59;10.52;;;3.05;;
21293;SDS011;10806;52.250;21.066;2022-08-01T14:58:25;6.43;;;2.97;;
21293;SDS011;10806;52.250;21.066;2022-08-01T15:00:51;10.85;;;3.25;;
21293;SDS011;10806;52.250;21.066;2022-08-01T15:03:19;9.30;;;2.92;;
21293;SDS011;10806;52.250;21.066;2022-08-01T15:05:45;6.43;;;3.08;;
21293;SDS011;10806;52.250;21.066;2022-08-01T15:08:11;10.60;;;3.25;;
21293;SDS011;10806;52.250;21.066;2022-08-01T15:10:36;8.68;;;3.63;;
21293;SDS011;10806;52.250;21.066;2022-08-01T15:13:02;6.60;;;3.25;;
21293;SDS011;10806;52.250;21.066;2022-08-01T15:15:28;4.15;;;3.08;;